Assonet, Massachusetts
Current Conditions -  °F | °C
As of 7:52 AM on Friday 24 Oct 2014 (Local Time) from KTAN Reporting Station
Overcast Overcast  
Wind Chill: 50°   Ceiling: 1200
Heat Index: 50°   Visibility: 10mi
Dew Point: 48°   Wind: 6mph
Humidity: 93%   Direction: 330°NNW
Pressure: 29.68"   Gusts: NA
Location:  41.8°N, 71.07°W
Report Text: KTAN 241152Z AUTO 33005KT 10SM OVC012 10/09 A2968 RMK AO2 SLP051 60002 70049 T01000089 10106 20100 51008
Loading
Personal Weather Stations






























Interactive Weather Map
Tropical Storm Tracking
New forecast layout! Learn more

10-Day Weather Forecast

Advertisements
Track Severe Weather on mobile